sensor_id;sensor_type;location;lat;lon;timestamp;P1;durP1;ratioP1;P2;durP2;ratioP2
4812;SDS011;2420;51.202;8.698;2023-04-22T00:02:04;4.95;;;3.47;;
4812;SDS011;2420;51.202;8.698;2023-04-22T00:04:30;5.55;;;3.75;;
4812;SDS011;2420;51.202;8.698;2023-04-22T00:06:57;5.38;;;3.95;;
4812;SDS011;2420;51.202;8.698;2023-04-22T00:09:23;6.38;;;4.47;;
4812;SDS011;2420;51.202;8.698;2023-04-22T00:11:49;5.82;;;4.15;;
4812;SDS011;2420;51.202;8.698;2023-04-22T00:14:15;8.00;;;4.65;;
4812;SDS011;2420;51.202;8.698;2023-04-22T00:16:41;5.45;;;4.28;;
4812;SDS011;2420;51.202;8.698;2023-04-22T00:19:07;7.78;;;4.70;;
4812;SDS011;2420;51.202;8.698;2023-04-22T00:21:32;6.15;;;3.88;;
4812;SDS011;2420;51.202;8.698;2023-04-22T00:23:58;5.82;;;4.40;;
4812;SDS011;2420;51.202;8.698;2023-04-22T00:26:24;6.85;;;4.70;;
4812;SDS011;2420;51.202;8.698;2023-04-22T00:28:49;5.70;;;4.10;;
4812;SDS011;2420;51.202;8.698;2023-04-22T00:31:15;6.22;;;4.43;;
4812;SDS011;2420;51.202;8.698;2023-04-22T00:33:40;5.38;;;4.07;;
4812;SDS011;2420;51.202;8.698;2023-04-22T00:36:06;5.97;;;4.00;;
4812;SDS011;2420;51.202;8.698;2023-04-22T00:38:32;6.70;;;4.80;;
4812;SDS011;2420;51.202;8.698;2023-04-22T00:40:57;8.93;;;6.22;;
4812;SDS011;2420;51.202;8.698;2023-04-22T00:43:23;11.25;;;7.10;;
4812;SDS011;2420;51.202;8.698;2023-04-22T00:45:49;9.90;;;6.00;;
4812;SDS011;2420;51.202;8.698;2023-04-22T00:48:14;6.07;;;4.50;;
4812;SDS011;2420;51.202;8.698;2023-04-22T00:50:40;6.90;;;5.05;;
4812;SDS011;2420;51.202;8.698;2023-04-22T00:53:06;7.22;;;4.60;;
4812;SDS011;2420;51.202;8.698;2023-04-22T00:55:31;5.03;;;3.90;;
4812;SDS011;2420;51.202;8.698;2023-04-22T00:57:58;5.05;;;4.05;;
4812;SDS011;2420;51.202;8.698;2023-04-22T01:00:25;5.78;;;4.25;;
4812;SDS011;2420;51.202;8.698;2023-04-22T01:02:52;6.00;;;4.10;;
4812;SDS011;2420;51.202;8.698;2023-04-22T01:05:22;5.95;;;4.55;;
4812;SDS011;2420;51.202;8.698;2023-04-22T01:07:49;5.13;;;4.28;;
4812;SDS011;2420;51.202;8.698;2023-04-22T01:10:15;7.45;;;4.47;;
4812;SDS011;2420;51.202;8.698;2023-04-22T01:12:41;6.35;;;4.40;;
4812;SDS011;2420;51.202;8.698;2023-04-22T01:15:06;7.10;;;4.20;;
4812;SDS011;2420;51.202;8.698;2023-04-22T01:17:32;4.95;;;4.00;;
4812;SDS011;2420;51.202;8.698;2023-04-22T01:20:00;5.85;;;4.60;;
4812;SDS011;2420;51.202;8.698;2023-04-22T01:22:28;6.47;;;4.18;;
4812;SDS011;2420;51.202;8.698;2023-04-22T01:24:58;5.90;;;4.65;;
4812;SDS011;2420;51.202;8.698;2023-04-22T01:27:24;5.05;;;4.10;;
4812;SDS011;2420;51.202;8.698;2023-04-22T01:29:50;6.00;;;4.65;;
4812;SDS011;2420;51.202;8.698;2023-04-22T01:32:17;5.97;;;4.60;;
4812;SDS011;2420;51.202;8.698;2023-04-22T01:34:42;5.72;;;4.18;;
4812;SDS011;2420;51.202;8.698;2023-04-22T01:37:08;5.78;;;4.40;;
4812;SDS011;2420;51.202;8.698;2023-04-22T01:39:34;6.57;;;4.75;;
4812;SDS011;2420;51.202;8.698;2023-04-22T01:41:59;6.25;;;4.75;;
4812;SDS011;2420;51.202;8.698;2023-04-22T01:44:27;5.80;;;4.35;;
4812;SDS011;2420;51.202;8.698;2023-04-22T01:46:52;4.88;;;4.10;;
4812;SDS011;2420;51.202;8.698;2023-04-22T01:49:18;6.05;;;4.25;;
4812;SDS011;2420;51.202;8.698;2023-04-22T01:51:44;6.85;;;4.97;;
4812;SDS011;2420;51.202;8.698;2023-04-22T01:54:10;6.50;;;4.80;;
4812;SDS011;2420;51.202;8.698;2023-04-22T01:56:36;8.13;;;4.70;;
4812;SDS011;2420;51.202;8.698;2023-04-22T01:59:03;6.75;;;5.03;;
4812;SDS011;2420;51.202;8.698;2023-04-22T02:01:28;5.28;;;4.18;;
4812;SDS011;2420;51.202;8.698;2023-04-22T02:03:54;5.95;;;4.80;;
4812;SDS011;2420;51.202;8.698;2023-04-22T02:06:20;7.45;;;4.88;;
4812;SDS011;2420;51.202;8.698;2023-04-22T02:08:45;5.45;;;4.53;;
4812;SDS011;2420;51.202;8.698;2023-04-22T02:11:11;5.90;;;4.65;;
4812;SDS011;2420;51.202;8.698;2023-04-22T02:13:37;6.88;;;4.97;;
4812;SDS011;2420;51.202;8.698;2023-04-22T02:16:03;5.97;;;4.40;;
4812;SDS011;2420;51.202;8.698;2023-04-22T02:18:29;6.57;;;4.35;;
4812;SDS011;2420;51.202;8.698;2023-04-22T02:20:55;5.18;;;4.57;;
4812;SDS011;2420;51.202;8.698;2023-04-22T02:23:21;6.47;;;4.63;;
4812;SDS011;2420;51.202;8.698;2023-04-22T02:25:50;6.32;;;4.60;;
4812;SDS011;2420;51.202;8.698;2023-04-22T02:28:16;6.63;;;4.78;;
4812;SDS011;2420;51.202;8.698;2023-04-22T02:30:43;5.50;;;4.70;;
4812;SDS011;2420;51.202;8.698;2023-04-22T02:33:09;5.90;;;4.60;;
4812;SDS011;2420;51.202;8.698;2023-04-22T02:35:35;6.40;;;4.78;;
4812;SDS011;2420;51.202;8.698;2023-04-22T02:38:00;5.88;;;4.70;;
4812;SDS011;2420;51.202;8.698;2023-04-22T02:40:26;7.75;;;5.22;;
4812;SDS011;2420;51.202;8.698;2023-04-22T02:42:52;7.13;;;4.63;;
4812;SDS011;2420;51.202;8.698;2023-04-22T02:45:17;7.80;;;5.38;;
4812;SDS011;2420;51.202;8.698;2023-04-22T02:47:43;5.78;;;4.80;;
4812;SDS011;2420;51.202;8.698;2023-04-22T02:50:08;7.97;;;4.95;;
4812;SDS011;2420;51.202;8.698;2023-04-22T02:52:34;6.45;;;4.95;;
4812;SDS011;2420;51.202;8.698;2023-04-22T02:55:00;7.32;;;4.70;;
4812;SDS011;2420;51.202;8.698;2023-04-22T02:57:26;6.38;;;5.10;;
4812;SDS011;2420;51.202;8.698;2023-04-22T02:59:52;6.78;;;4.82;;
4812;SDS011;2420;51.202;8.698;2023-04-22T03:02:17;6.22;;;4.90;;
4812;SDS011;2420;51.202;8.698;2023-04-22T03:04:43;6.03;;;4.75;;
4812;SDS011;2420;51.202;8.698;2023-04-22T03:07:08;7.57;;;4.70;;
4812;SDS011;2420;51.202;8.698;2023-04-22T03:09:34;5.63;;;4.60;;
4812;SDS011;2420;51.202;8.698;2023-04-22T03:12:00;6.13;;;4.70;;
4812;SDS011;2420;51.202;8.698;2023-04-22T03:14:26;6.18;;;4.80;;
4812;SDS011;2420;51.202;8.698;2023-04-22T03:16:52;8.07;;;5.45;;
4812;SDS011;2420;51.202;8.698;2023-04-22T03:19:18;6.95;;;5.20;;
4812;SDS011;2420;51.202;8.698;2023-04-22T03:21:43;6.25;;;5.10;;
4812;SDS011;2420;51.202;8.698;2023-04-22T03:24:09;8.48;;;5.20;;
4812;SDS011;2420;51.202;8.698;2023-04-22T03:26:35;7.50;;;5.40;;
4812;SDS011;2420;51.202;8.698;2023-04-22T03:29:00;7.43;;;5.20;;
4812;SDS011;2420;51.202;8.698;2023-04-22T03:31:26;6.45;;;5.30;;
4812;SDS011;2420;51.202;8.698;2023-04-22T03:33:51;6.47;;;4.72;;
4812;SDS011;2420;51.202;8.698;2023-04-22T03:36:17;6.25;;;5.35;;
4812;SDS011;2420;51.202;8.698;2023-04-22T03:38:42;8.02;;;5.93;;
4812;SDS011;2420;51.202;8.698;2023-04-22T03:41:08;8.32;;;6.05;;
4812;SDS011;2420;51.202;8.698;2023-04-22T03:43:34;7.95;;;5.85;;
4812;SDS011;2420;51.202;8.698;2023-04-22T03:45:59;8.13;;;5.80;;
4812;SDS011;2420;51.202;8.698;2023-04-22T03:48:25;7.70;;;5.95;;
4812;SDS011;2420;51.202;8.698;2023-04-22T03:50:52;11.07;;;6.72;;
4812;SDS011;2420;51.202;8.698;2023-04-22T03:53:18;8.82;;;6.85;;
4812;SDS011;2420;51.202;8.698;2023-04-22T03:55:44;9.30;;;6.93;;
4812;SDS011;2420;51.202;8.698;2023-04-22T03:58:09;8.63;;;6.50;;
4812;SDS011;2420;51.202;8.698;2023-04-22T04:00:35;10.82;;;6.95;;
4812;SDS011;2420;51.202;8.698;2023-04-22T04:03:01;7.57;;;6.40;;
4812;SDS011;2420;51.202;8.698;2023-04-22T04:05:26;10.25;;;6.90;;
4812;SDS011;2420;51.202;8.698;2023-04-22T04:07:52;10.38;;;6.93;;
4812;SDS011;2420;51.202;8.698;2023-04-22T04:10:17;7.90;;;6.63;;
4812;SDS011;2420;51.202;8.698;2023-04-22T04:12:43;8.52;;;6.68;;
4812;SDS011;2420;51.202;8.698;2023-04-22T04:15:09;8.65;;;6.82;;
4812;SDS011;2420;51.202;8.698;2023-04-22T04:17:35;8.38;;;6.55;;
4812;SDS011;2420;51.202;8.698;2023-04-22T04:20:01;9.15;;;6.20;;
4812;SDS011;2420;51.202;8.698;2023-04-22T04:22:27;9.23;;;6.55;;
4812;SDS011;2420;51.202;8.698;2023-04-22T04:24:53;8.02;;;6.60;;
4812;SDS011;2420;51.202;8.698;2023-04-22T04:27:20;7.88;;;6.25;;
4812;SDS011;2420;51.202;8.698;2023-04-22T04:29:47;8.82;;;6.05;;
4812;SDS011;2420;51.202;8.698;2023-04-22T04:32:13;10.65;;;6.88;;
4812;SDS011;2420;51.202;8.698;2023-04-22T04:34:39;11.23;;;6.88;;
4812;SDS011;2420;51.202;8.698;2023-04-22T04:37:06;7.15;;;6.03;;
4812;SDS011;2420;51.202;8.698;2023-04-22T04:39:32;9.32;;;6.20;;
4812;SDS011;2420;51.202;8.698;2023-04-22T04:41:57;8.93;;;6.80;;
4812;SDS011;2420;51.202;8.698;2023-04-22T04:44:24;9.15;;;6.90;;
4812;SDS011;2420;51.202;8.698;2023-04-22T04:46:55;10.27;;;7.07;;
4812;SDS011;2420;51.202;8.698;2023-04-22T04:49:21;9.98;;;7.25;;
4812;SDS011;2420;51.202;8.698;2023-04-22T04:51:47;9.63;;;7.32;;
4812;SDS011;2420;51.202;8.698;2023-04-22T04:54:13;9.38;;;6.80;;
4812;SDS011;2420;51.202;8.698;2023-04-22T04:56:39;10.27;;;7.55;;
4812;SDS011;2420;51.202;8.698;2023-04-22T04:59:05;10.23;;;7.22;;
4812;SDS011;2420;51.202;8.698;2023-04-22T05:01:30;11.20;;;7.90;;
4812;SDS011;2420;51.202;8.698;2023-04-22T05:03:56;9.15;;;6.93;;
4812;SDS011;2420;51.202;8.698;2023-04-22T05:06:21;11.38;;;7.72;;
4812;SDS011;2420;51.202;8.698;2023-04-22T05:08:47;11.30;;;8.13;;
4812;SDS011;2420;51.202;8.698;2023-04-22T05:11:12;10.13;;;7.45;;
4812;SDS011;2420;51.202;8.698;2023-04-22T05:13:38;11.65;;;7.90;;
4812;SDS011;2420;51.202;8.698;2023-04-22T05:16:03;12.15;;;7.43;;
4812;SDS011;2420;51.202;8.698;2023-04-22T05:18:29;10.73;;;8.25;;
4812;SDS011;2420;51.202;8.698;2023-04-22T05:20:55;11.45;;;7.95;;
4812;SDS011;2420;51.202;8.698;2023-04-22T05:23:23;11.05;;;8.05;;
4812;SDS011;2420;51.202;8.698;2023-04-22T05:25:50;12.75;;;8.13;;
4812;SDS011;2420;51.202;8.698;2023-04-22T05:28:15;9.90;;;7.93;;
4812;SDS011;2420;51.202;8.698;2023-04-22T05:30:41;11.23;;;7.78;;
4812;SDS011;2420;51.202;8.698;2023-04-22T05:33:06;11.23;;;8.35;;
4812;SDS011;2420;51.202;8.698;2023-04-22T05:35:33;13.15;;;9.73;;
4812;SDS011;2420;51.202;8.698;2023-04-22T05:37:59;12.80;;;9.23;;
4812;SDS011;2420;51.202;8.698;2023-04-22T05:40:25;12.80;;;9.18;;
4812;SDS011;2420;51.202;8.698;2023-04-22T05:42:51;14.63;;;9.75;;
4812;SDS011;2420;51.202;8.698;2023-04-22T05:45:16;13.35;;;9.40;;
4812;SDS011;2420;51.202;8.698;2023-04-22T05:47:42;14.63;;;9.50;;
4812;SDS011;2420;51.202;8.698;2023-04-22T05:50:08;10.13;;;8.23;;
4812;SDS011;2420;51.202;8.698;2023-04-22T05:52:33;13.15;;;8.93;;
4812;SDS011;2420;51.202;8.698;2023-04-22T05:54:59;12.30;;;9.55;;
4812;SDS011;2420;51.202;8.698;2023-04-22T05:57:24;13.48;;;9.98;;
4812;SDS011;2420;51.202;8.698;2023-04-22T05:59:50;14.48;;;9.88;;
4812;SDS011;2420;51.202;8.698;2023-04-22T06:02:15;14.07;;;9.77;;
4812;SDS011;2420;51.202;8.698;2023-04-22T06:04:41;11.45;;;8.57;;
4812;SDS011;2420;51.202;8.698;2023-04-22T06:07:07;14.55;;;10.05;;
4812;SDS011;2420;51.202;8.698;2023-04-22T06:09:32;15.73;;;11.27;;
4812;SDS011;2420;51.202;8.698;2023-04-22T06:11:58;17.55;;;11.93;;
4812;SDS011;2420;51.202;8.698;2023-04-22T06:14:25;16.35;;;11.55;;
4812;SDS011;2420;51.202;8.698;2023-04-22T06:16:51;16.02;;;10.88;;
4812;SDS011;2420;51.202;8.698;2023-04-22T06:19:18;18.50;;;10.98;;
4812;SDS011;2420;51.202;8.698;2023-04-22T06:21:43;14.25;;;9.88;;
4812;SDS011;2420;51.202;8.698;2023-04-22T06:24:09;14.52;;;10.55;;
4812;SDS011;2420;51.202;8.698;2023-04-22T06:26:35;16.75;;;10.65;;
4812;SDS011;2420;51.202;8.698;2023-04-22T06:29:01;16.08;;;11.38;;
4812;SDS011;2420;51.202;8.698;2023-04-22T06:31:29;15.15;;;10.95;;
4812;SDS011;2420;51.202;8.698;2023-04-22T06:33:55;15.57;;;11.43;;
4812;SDS011;2420;51.202;8.698;2023-04-22T06:36:21;16.33;;;11.70;;
4812;SDS011;2420;51.202;8.698;2023-04-22T06:38:47;15.30;;;11.80;;
4812;SDS011;2420;51.202;8.698;2023-04-22T06:41:12;16.52;;;12.38;;
4812;SDS011;2420;51.202;8.698;2023-04-22T06:43:38;14.38;;;10.93;;
4812;SDS011;2420;51.202;8.698;2023-04-22T06:46:03;15.35;;;11.23;;
4812;SDS011;2420;51.202;8.698;2023-04-22T06:48:29;16.83;;;12.57;;
4812;SDS011;2420;51.202;8.698;2023-04-22T06:50:55;16.17;;;12.55;;
4812;SDS011;2420;51.202;8.698;2023-04-22T06:53:21;16.15;;;11.95;;
4812;SDS011;2420;51.202;8.698;2023-04-22T06:55:47;14.50;;;11.10;;
4812;SDS011;2420;51.202;8.698;2023-04-22T06:58:12;15.15;;;10.52;;
4812;SDS011;2420;51.202;8.698;2023-04-22T07:00:38;14.57;;;10.18;;
4812;SDS011;2420;51.202;8.698;2023-04-22T07:03:03;14.90;;;10.32;;
4812;SDS011;2420;51.202;8.698;2023-04-22T07:05:29;13.38;;;9.88;;
4812;SDS011;2420;51.202;8.698;2023-04-22T07:07:56;11.15;;;8.70;;
4812;SDS011;2420;51.202;8.698;2023-04-22T07:10:21;10.55;;;8.15;;
4812;SDS011;2420;51.202;8.698;2023-04-22T07:12:47;9.50;;;7.28;;
4812;SDS011;2420;51.202;8.698;2023-04-22T07:15:12;11.43;;;7.55;;
4812;SDS011;2420;51.202;8.698;2023-04-22T07:17:38;11.20;;;8.30;;
4812;SDS011;2420;51.202;8.698;2023-04-22T07:20:04;10.25;;;7.30;;
4812;SDS011;2420;51.202;8.698;2023-04-22T07:22:30;10.68;;;7.60;;
4812;SDS011;2420;51.202;8.698;2023-04-22T07:24:55;11.00;;;7.70;;
4812;SDS011;2420;51.202;8.698;2023-04-22T07:27:21;10.38;;;8.43;;
4812;SDS011;2420;51.202;8.698;2023-04-22T07:29:46;11.80;;;9.02;;
4812;SDS011;2420;51.202;8.698;2023-04-22T07:32:12;9.77;;;7.57;;
4812;SDS011;2420;51.202;8.698;2023-04-22T07:34:38;11.57;;;8.55;;
4812;SDS011;2420;51.202;8.698;2023-04-22T07:37:03;10.38;;;8.35;;
4812;SDS011;2420;51.202;8.698;2023-04-22T07:39:31;7.63;;;6.57;;
4812;SDS011;2420;51.202;8.698;2023-04-22T07:41:56;8.52;;;6.30;;
4812;SDS011;2420;51.202;8.698;2023-04-22T07:44:22;8.73;;;7.10;;
4812;SDS011;2420;51.202;8.698;2023-04-22T07:46:48;7.72;;;6.38;;
4812;SDS011;2420;51.202;8.698;2023-04-22T07:49:14;9.55;;;6.65;;
4812;SDS011;2420;51.202;8.698;2023-04-22T07:51:41;9.02;;;6.63;;
4812;SDS011;2420;51.202;8.698;2023-04-22T07:54:07;8.68;;;6.38;;
4812;SDS011;2420;51.202;8.698;2023-04-22T07:56:33;8.65;;;6.82;;
4812;SDS011;2420;51.202;8.698;2023-04-22T07:58:59;8.25;;;6.55;;
4812;SDS011;2420;51.202;8.698;2023-04-22T08:01:24;9.20;;;6.53;;
4812;SDS011;2420;51.202;8.698;2023-04-22T08:03:50;8.27;;;6.45;;
4812;SDS011;2420;51.202;8.698;2023-04-22T08:06:16;8.55;;;6.95;;
4812;SDS011;2420;51.202;8.698;2023-04-22T08:08:41;7.82;;;6.25;;
4812;SDS011;2420;51.202;8.698;2023-04-22T08:11:07;7.38;;;5.70;;
4812;SDS011;2420;51.202;8.698;2023-04-22T08:13:32;7.93;;;6.20;;
4812;SDS011;2420;51.202;8.698;2023-04-22T08:16:01;7.18;;;5.80;;
4812;SDS011;2420;51.202;8.698;2023-04-22T08:18:27;5.40;;;4.72;;
4812;SDS011;2420;51.202;8.698;2023-04-22T08:20:53;7.38;;;5.75;;
4812;SDS011;2420;51.202;8.698;2023-04-22T08:23:19;6.72;;;5.40;;
4812;SDS011;2420;51.202;8.698;2023-04-22T08:25:45;7.15;;;5.20;;
4812;SDS011;2420;51.202;8.698;2023-04-22T08:28:11;7.13;;;5.30;;
4812;SDS011;2420;51.202;8.698;2023-04-22T08:30:36;7.50;;;5.35;;
4812;SDS011;2420;51.202;8.698;2023-04-22T08:33:02;7.15;;;5.22;;
4812;SDS011;2420;51.202;8.698;2023-04-22T08:35:28;6.82;;;5.32;;
4812;SDS011;2420;51.202;8.698;2023-04-22T08:37:53;6.20;;;4.78;;
4812;SDS011;2420;51.202;8.698;2023-04-22T08:40:19;5.82;;;4.90;;
4812;SDS011;2420;51.202;8.698;2023-04-22T08:42:44;6.13;;;4.95;;
4812;SDS011;2420;51.202;8.698;2023-04-22T08:45:11;6.68;;;5.20;;
4812;SDS011;2420;51.202;8.698;2023-04-22T08:47:38;5.55;;;4.50;;
4812;SDS011;2420;51.202;8.698;2023-04-22T08:50:05;5.68;;;4.78;;
4812;SDS011;2420;51.202;8.698;2023-04-22T08:52:32;5.03;;;4.53;;
4812;SDS011;2420;51.202;8.698;2023-04-22T08:54:58;5.35;;;4.85;;
4812;SDS011;2420;51.202;8.698;2023-04-22T08:57:24;6.40;;;4.53;;
4812;SDS011;2420;51.202;8.698;2023-04-22T08:59:50;5.90;;;4.35;;
4812;SDS011;2420;51.202;8.698;2023-04-22T09:02:19;5.82;;;5.00;;
4812;SDS011;2420;51.202;8.698;2023-04-22T09:04:46;6.57;;;5.55;;
4812;SDS011;2420;51.202;8.698;2023-04-22T09:07:17;7.43;;;4.95;;
4812;SDS011;2420;51.202;8.698;2023-04-22T09:09:49;5.72;;;4.50;;
4812;SDS011;2420;51.202;8.698;2023-04-22T09:12:15;4.97;;;4.30;;
4812;SDS011;2420;51.202;8.698;2023-04-22T09:14:44;5.18;;;4.10;;
4812;SDS011;2420;51.202;8.698;2023-04-22T09:17:09;4.82;;;4.32;;
4812;SDS011;2420;51.202;8.698;2023-04-22T09:19:35;6.07;;;4.57;;
4812;SDS011;2420;51.202;8.698;2023-04-22T09:22:01;6.85;;;4.75;;
4812;SDS011;2420;51.202;8.698;2023-04-22T09:24:26;6.80;;;4.78;;
4812;SDS011;2420;51.202;8.698;2023-04-22T09:26:56;5.03;;;4.50;;
4812;SDS011;2420;51.202;8.698;2023-04-22T09:29:22;6.28;;;4.15;;
4812;SDS011;2420;51.202;8.698;2023-04-22T09:31:54;5.95;;;4.60;;
4812;SDS011;2420;51.202;8.698;2023-04-22T09:34:22;6.20;;;4.07;;
4812;SDS011;2420;51.202;8.698;2023-04-22T09:36:49;6.45;;;4.28;;
4812;SDS011;2420;51.202;8.698;2023-04-22T09:39:15;5.72;;;4.38;;
4812;SDS011;2420;51.202;8.698;2023-04-22T09:41:41;5.03;;;4.22;;
4812;SDS011;2420;51.202;8.698;2023-04-22T09:44:08;5.47;;;4.47;;
4812;SDS011;2420;51.202;8.698;2023-04-22T09:46:34;5.82;;;4.10;;
4812;SDS011;2420;51.202;8.698;2023-04-22T09:49:00;4.10;;;3.70;;
4812;SDS011;2420;51.202;8.698;2023-04-22T09:51:26;5.30;;;3.92;;
4812;SDS011;2420;51.202;8.698;2023-04-22T09:54:05;4.15;;;3.75;;
4812;SDS011;2420;51.202;8.698;2023-04-22T09:56:50;4.38;;;3.67;;
4812;SDS011;2420;51.202;8.698;2023-04-22T10:01:46;3.95;;;3.55;;
4812;SDS011;2420;51.202;8.698;2023-04-22T10:04:12;5.03;;;3.83;;
4812;SDS011;2420;51.202;8.698;2023-04-22T10:06:39;5.47;;;4.32;;
4812;SDS011;2420;51.202;8.698;2023-04-22T10:09:06;4.60;;;3.72;;
4812;SDS011;2420;51.202;8.698;2023-04-22T10:11:36;5.88;;;4.32;;
4812;SDS011;2420;51.202;8.698;2023-04-22T10:14:02;5.38;;;3.67;;
4812;SDS011;2420;51.202;8.698;2023-04-22T10:16:29;4.28;;;3.63;;
4812;SDS011;2420;51.202;8.698;2023-04-22T10:18:57;4.97;;;4.07;;
4812;SDS011;2420;51.202;8.698;2023-04-22T10:21:26;3.90;;;3.42;;
4812;SDS011;2420;51.202;8.698;2023-04-22T10:23:54;4.13;;;3.70;;
4812;SDS011;2420;51.202;8.698;2023-04-22T10:26:39;5.78;;;3.83;;
4812;SDS011;2420;51.202;8.698;2023-04-22T10:29:08;4.32;;;3.50;;
4812;SDS011;2420;51.202;8.698;2023-04-22T10:31:41;4.28;;;3.70;;
4812;SDS011;2420;51.202;8.698;2023-04-22T10:34:09;3.75;;;3.20;;
4812;SDS011;2420;51.202;8.698;2023-04-22T10:36:51;3.97;;;3.33;;
4812;SDS011;2420;51.202;8.698;2023-04-22T10:39:38;3.90;;;3.10;;
4812;SDS011;2420;51.202;8.698;2023-04-22T10:42:11;5.53;;;3.28;;
4812;SDS011;2420;51.202;8.698;2023-04-22T10:44:47;3.25;;;2.80;;
4812;SDS011;2420;51.202;8.698;2023-04-22T10:47:32;4.53;;;3.20;;
4812;SDS011;2420;51.202;8.698;2023-04-22T10:52:42;4.32;;;3.00;;
4812;SDS011;2420;51.202;8.698;2023-04-22T10:55:10;4.15;;;3.50;;
4812;SDS011;2420;51.202;8.698;2023-04-22T10:57:37;4.35;;;3.15;;
4812;SDS011;2420;51.202;8.698;2023-04-22T11:05:29;4.45;;;3.03;;
4812;SDS011;2420;51.202;8.698;2023-04-22T11:07:57;4.57;;;3.10;;
4812;SDS011;2420;51.202;8.698;2023-04-22T11:13:00;5.32;;;3.20;;
4812;SDS011;2420;51.202;8.698;2023-04-22T11:15:27;4.32;;;2.75;;
4812;SDS011;2420;51.202;8.698;2023-04-22T11:17:54;3.17;;;2.80;;
4812;SDS011;2420;51.202;8.698;2023-04-22T11:20:20;3.45;;;2.60;;
4812;SDS011;2420;51.202;8.698;2023-04-22T11:22:46;4.53;;;3.00;;
4812;SDS011;2420;51.202;8.698;2023-04-22T11:25:14;3.08;;;2.70;;
4812;SDS011;2420;51.202;8.698;2023-04-22T11:27:40;3.17;;;2.72;;
4812;SDS011;2420;51.202;8.698;2023-04-22T11:30:10;2.92;;;2.58;;
4812;SDS011;2420;51.202;8.698;2023-04-22T11:32:44;4.47;;;3.15;;
4812;SDS011;2420;51.202;8.698;2023-04-22T11:35:21;4.68;;;2.83;;
4812;SDS011;2420;51.202;8.698;2023-04-22T11:37:55;2.88;;;2.58;;
4812;SDS011;2420;51.202;8.698;2023-04-22T11:40:30;4.25;;;2.75;;
4812;SDS011;2420;51.202;8.698;2023-04-22T11:42:58;4.00;;;2.75;;
4812;SDS011;2420;51.202;8.698;2023-04-22T11:45:25;3.10;;;2.80;;
4812;SDS011;2420;51.202;8.698;2023-04-22T11:47:52;5.45;;;3.03;;
4812;SDS011;2420;51.202;8.698;2023-04-22T11:50:23;4.45;;;2.70;;
4812;SDS011;2420;51.202;8.698;2023-04-22T11:52:59;3.35;;;3.00;;
4812;SDS011;2420;51.202;8.698;2023-04-22T11:55:30;3.97;;;2.90;;
4812;SDS011;2420;51.202;8.698;2023-04-22T12:00:29;3.28;;;2.70;;
4812;SDS011;2420;51.202;8.698;2023-04-22T12:02:58;3.17;;;2.78;;
4812;SDS011;2420;51.202;8.698;2023-04-22T12:05:59;3.92;;;2.50;;
4812;SDS011;2420;51.202;8.698;2023-04-22T12:08:19;4.03;;;3.08;;
4812;SDS011;2420;51.202;8.698;2023-04-22T12:10:52;3.10;;;2.80;;
4812;SDS011;2420;51.202;8.698;2023-04-22T12:13:38;3.17;;;2.80;;
4812;SDS011;2420;51.202;8.698;2023-04-22T12:16:10;4.85;;;3.08;;
4812;SDS011;2420;51.202;8.698;2023-04-22T12:18:38;13.30;;;6.03;;
4812;SDS011;2420;51.202;8.698;2023-04-22T12:23:39;8.98;;;4.45;;
4812;SDS011;2420;51.202;8.698;2023-04-22T12:26:28;6.13;;;2.97;;
4812;SDS011;2420;51.202;8.698;2023-04-22T12:28:55;2.80;;;2.50;;
4812;SDS011;2420;51.202;8.698;2023-04-22T12:31:22;2.92;;;2.50;;
4812;SDS011;2420;51.202;8.698;2023-04-22T12:33:48;3.47;;;2.72;;
4812;SDS011;2420;51.202;8.698;2023-04-22T12:36:14;3.83;;;2.40;;
4812;SDS011;2420;51.202;8.698;2023-04-22T12:38:40;3.40;;;2.63;;
4812;SDS011;2420;51.202;8.698;2023-04-22T12:41:05;3.42;;;2.40;;
4812;SDS011;2420;51.202;8.698;2023-04-22T12:43:32;5.40;;;3.17;;
4812;SDS011;2420;51.202;8.698;2023-04-22T12:46:00;2.50;;;2.30;;
4812;SDS011;2420;51.202;8.698;2023-04-22T12:48:30;2.60;;;2.40;;
4812;SDS011;2420;51.202;8.698;2023-04-22T12:50:56;4.10;;;2.58;;
4812;SDS011;2420;51.202;8.698;2023-04-22T12:53:22;2.80;;;2.47;;
4812;SDS011;2420;51.202;8.698;2023-04-22T12:55:48;2.85;;;2.40;;
4812;SDS011;2420;51.202;8.698;2023-04-22T12:58:14;3.25;;;2.78;;
4812;SDS011;2420;51.202;8.698;2023-04-22T13:00:39;2.70;;;2.47;;
4812;SDS011;2420;51.202;8.698;2023-04-22T13:03:05;2.90;;;2.55;;
4812;SDS011;2420;51.202;8.698;2023-04-22T13:05:31;3.65;;;3.10;;
4812;SDS011;2420;51.202;8.698;2023-04-22T13:07:57;3.10;;;2.67;;
4812;SDS011;2420;51.202;8.698;2023-04-22T13:10:23;3.55;;;2.63;;
4812;SDS011;2420;51.202;8.698;2023-04-22T13:12:52;3.00;;;2.50;;
4812;SDS011;2420;51.202;8.698;2023-04-22T13:15:18;3.97;;;2.50;;
4812;SDS011;2420;51.202;8.698;2023-04-22T13:17:45;5.00;;;2.33;;
4812;SDS011;2420;51.202;8.698;2023-04-22T13:20:11;9.05;;;4.50;;
4812;SDS011;2420;51.202;8.698;2023-04-22T13:22:38;5.28;;;3.42;;
4812;SDS011;2420;51.202;8.698;2023-04-22T13:25:05;3.85;;;2.35;;
4812;SDS011;2420;51.202;8.698;2023-04-22T13:27:31;3.95;;;2.17;;
4812;SDS011;2420;51.202;8.698;2023-04-22T13:29:57;4.70;;;2.17;;
4812;SDS011;2420;51.202;8.698;2023-04-22T13:32:22;2.47;;;2.10;;
4812;SDS011;2420;51.202;8.698;2023-04-22T13:34:48;2.78;;;2.25;;
4812;SDS011;2420;51.202;8.698;2023-04-22T13:37:14;2.97;;;2.50;;
4812;SDS011;2420;51.202;8.698;2023-04-22T13:39:40;3.42;;;2.38;;
4812;SDS011;2420;51.202;8.698;2023-04-22T13:42:06;3.38;;;2.40;;
4812;SDS011;2420;51.202;8.698;2023-04-22T13:44:32;2.78;;;2.20;;
4812;SDS011;2420;51.202;8.698;2023-04-22T13:46:57;3.70;;;2.30;;
4812;SDS011;2420;51.202;8.698;2023-04-22T13:49:23;2.53;;;2.30;;
4812;SDS011;2420;51.202;8.698;2023-04-22T13:51:50;2.75;;;2.35;;
4812;SDS011;2420;51.202;8.698;2023-04-22T13:54:16;4.03;;;2.60;;
4812;SDS011;2420;51.202;8.698;2023-04-22T13:56:41;4.18;;;2.60;;
4812;SDS011;2420;51.202;8.698;2023-04-22T13:59:07;3.90;;;2.60;;
4812;SDS011;2420;51.202;8.698;2023-04-22T14:01:35;3.40;;;2.80;;
4812;SDS011;2420;51.202;8.698;2023-04-22T14:04:04;3.60;;;2.60;;
4812;SDS011;2420;51.202;8.698;2023-04-22T14:06:29;4.13;;;2.35;;
4812;SDS011;2420;51.202;8.698;2023-04-22T14:08:55;3.70;;;2.63;;
4812;SDS011;2420;51.202;8.698;2023-04-22T14:11:21;3.28;;;2.70;;
4812;SDS011;2420;51.202;8.698;2023-04-22T14:13:46;3.65;;;2.58;;
4812;SDS011;2420;51.202;8.698;2023-04-22T14:16:12;2.97;;;2.55;;
4812;SDS011;2420;51.202;8.698;2023-04-22T14:18:38;3.63;;;2.80;;
4812;SDS011;2420;51.202;8.698;2023-04-22T14:21:05;3.22;;;2.60;;
4812;SDS011;2420;51.202;8.698;2023-04-22T14:23:36;3.95;;;2.67;;
4812;SDS011;2420;51.202;8.698;2023-04-22T14:26:04;4.03;;;3.00;;
4812;SDS011;2420;51.202;8.698;2023-04-22T14:28:31;5.03;;;2.78;;
4812;SDS011;2420;51.202;8.698;2023-04-22T14:30:57;4.10;;;2.80;;
4812;SDS011;2420;51.202;8.698;2023-04-22T14:33:22;3.80;;;2.80;;
4812;SDS011;2420;51.202;8.698;2023-04-22T14:35:49;5.95;;;3.53;;
4812;SDS011;2420;51.202;8.698;2023-04-22T14:38:16;3.13;;;2.67;;
4812;SDS011;2420;51.202;8.698;2023-04-22T14:40:42;3.55;;;2.97;;
4812;SDS011;2420;51.202;8.698;2023-04-22T14:43:07;4.20;;;3.03;;
4812;SDS011;2420;51.202;8.698;2023-04-22T14:45:33;3.88;;;3.22;;
4812;SDS011;2420;51.202;8.698;2023-04-22T14:47:59;3.47;;;2.92;;
4812;SDS011;2420;51.202;8.698;2023-04-22T14:50:25;4.30;;;3.40;;
4812;SDS011;2420;51.202;8.698;2023-04-22T14:52:51;4.75;;;2.97;;
4812;SDS011;2420;51.202;8.698;2023-04-22T14:55:17;3.55;;;2.90;;
4812;SDS011;2420;51.202;8.698;2023-04-22T14:57:44;4.05;;;2.80;;
4812;SDS011;2420;51.202;8.698;2023-04-22T15:00:10;3.28;;;2.97;;
4812;SDS011;2420;51.202;8.698;2023-04-22T15:02:36;4.22;;;2.80;;
4812;SDS011;2420;51.202;8.698;2023-04-22T15:05:02;4.32;;;3.08;;
4812;SDS011;2420;51.202;8.698;2023-04-22T15:07:28;4.13;;;3.30;;
4812;SDS011;2420;51.202;8.698;2023-04-22T15:09:54;5.18;;;3.20;;
4812;SDS011;2420;51.202;8.698;2023-04-22T15:12:22;3.40;;;2.88;;
4812;SDS011;2420;51.202;8.698;2023-04-22T15:14:48;4.45;;;3.03;;
4812;SDS011;2420;51.202;8.698;2023-04-22T15:17:14;4.43;;;3.30;;
4812;SDS011;2420;51.202;8.698;2023-04-22T15:19:40;4.85;;;3.15;;
4812;SDS011;2420;51.202;8.698;2023-04-22T15:22:05;4.72;;;3.25;;
4812;SDS011;2420;51.202;8.698;2023-04-22T15:24:31;4.00;;;3.60;;
4812;SDS011;2420;51.202;8.698;2023-04-22T15:26:57;4.13;;;3.63;;
4812;SDS011;2420;51.202;8.698;2023-04-22T15:29:22;3.22;;;2.92;;